createdAt,value
2022-08-04T00:00:40.268Z,3.70
2022-08-04T00:01:40.296Z,3.50
2022-08-04T00:02:40.249Z,3.30
2022-08-04T00:03:40.230Z,3.40
2022-08-04T00:04:40.251Z,3.00
2022-08-04T00:05:40.211Z,3.50
2022-08-04T00:06:40.211Z,3.40
2022-08-04T00:07:44.017Z,3.50
2022-08-04T00:08:40.192Z,3.40
2022-08-04T00:09:40.192Z,3.20
2022-08-04T00:10:40.162Z,3.60
2022-08-04T00:11:40.154Z,3.80
2022-08-04T00:12:40.154Z,3.90
2022-08-04T00:13:59.737Z,3.30
2022-08-04T00:14:41.143Z,3.30
2022-08-04T00:15:40.105Z,3.30
2022-08-04T00:16:40.095Z,3.30
2022-08-04T00:17:40.106Z,3.50
2022-08-04T00:18:40.079Z,3.60
2022-08-04T00:19:40.086Z,3.40
2022-08-04T00:20:40.061Z,3.20
2022-08-04T00:21:40.047Z,3.40
2022-08-04T00:22:40.037Z,3.50
2022-08-04T00:24:11.789Z,3.70
2022-08-04T00:24:41.038Z,3.70
2022-08-04T00:25:40.000Z,3.40
2022-08-04T00:26:40.000Z,2.80
2022-08-04T00:27:39.981Z,3.30
2022-08-04T00:28:39.972Z,3.50
2022-08-04T00:29:39.985Z,3.70
2022-08-04T00:30:39.951Z,3.40
2022-08-04T00:31:55.048Z,3.90
2022-08-04T00:32:40.939Z,3.70
2022-08-04T00:33:39.912Z,3.30
2022-08-04T00:34:39.934Z,3.40
2022-08-04T00:35:39.894Z,3.70
2022-08-04T00:36:39.893Z,3.40
2022-08-04T00:37:39.885Z,3.40
2022-08-04T00:38:39.875Z,3.80
2022-08-04T00:39:39.901Z,3.60
2022-08-04T00:40:39.846Z,3.40
2022-08-04T00:41:55.016Z,3.60
2022-08-04T00:42:49.474Z,3.70
2022-08-04T00:43:40.815Z,3.30
2022-08-04T00:44:39.828Z,3.90
2022-08-04T00:46:16.316Z,3.90
2022-08-04T00:46:40.789Z,3.30
2022-08-04T00:47:39.778Z,3.70
2022-08-04T00:48:39.768Z,3.70
2022-08-04T00:49:39.769Z,3.60
2022-08-04T00:50:39.740Z,3.50
2022-08-04T00:51:39.730Z,3.50
2022-08-04T00:52:39.724Z,3.50
2022-08-04T00:53:39.712Z,3.10
2022-08-04T00:54:40.731Z,2.90
2022-08-04T00:55:39.690Z,3.40
2022-08-04T00:56:39.685Z,3.70
2022-08-04T00:57:39.663Z,3.40
2022-08-04T00:58:39.661Z,3.30
2022-08-04T00:59:39.664Z,3.40
2022-08-04T01:00:39.656Z,3.30
2022-08-04T01:01:39.688Z,3.50
2022-08-04T01:02:39.616Z,3.50
2022-08-04T01:03:39.614Z,3.60
2022-08-04T01:04:39.616Z,3.10
2022-08-04T01:05:39.586Z,3.50
2022-08-04T01:06:39.577Z,3.40
2022-08-04T01:07:39.557Z,3.50
2022-08-04T01:08:39.557Z,3.60
2022-08-04T01:09:39.566Z,3.50
2022-08-04T01:10:39.539Z,3.40
2022-08-04T01:11:57.543Z,3.40
2022-08-04T01:12:40.513Z,3.50
2022-08-04T01:13:39.499Z,3.40
2022-08-04T01:14:39.512Z,3.40
2022-08-04T01:15:59.348Z,3.40
2022-08-04T01:16:40.476Z,3.50
2022-08-04T01:17:39.458Z,3.50
2022-08-04T01:18:39.451Z,3.50
2022-08-04T01:19:39.452Z,3.50
2022-08-04T01:20:39.436Z,3.50
2022-08-04T01:21:39.422Z,3.20
2022-08-04T01:22:39.413Z,3.40
2022-08-04T01:23:39.393Z,3.40
2022-08-04T01:24:39.405Z,3.30
2022-08-04T01:25:39.384Z,3.10
2022-08-04T01:26:44.184Z,3.20
2022-08-04T01:27:40.356Z,3.40
2022-08-04T01:28:42.864Z,3.10
2022-08-04T01:29:46.790Z,3.50
2022-08-04T01:30:40.316Z,3.60
2022-08-04T01:31:39.316Z,3.30
2022-08-04T01:32:39.307Z,3.50
2022-08-04T01:34:02.969Z,3.80
2022-08-04T01:34:40.302Z,4.20
2022-08-04T01:35:47.565Z,4.30
2022-08-04T01:36:40.334Z,4.30
2022-08-04T01:37:39.250Z,3.90
2022-08-04T01:38:39.251Z,4.10
2022-08-04T01:39:39.250Z,4.00
2022-08-04T01:40:39.212Z,4.20
2022-08-04T01:41:39.210Z,4.10
2022-08-04T01:42:39.191Z,4.50
2022-08-04T01:43:39.192Z,4.50
2022-08-04T01:44:39.197Z,4.30
2022-08-04T01:45:39.163Z,3.60
2022-08-04T01:46:39.154Z,4.00
2022-08-04T01:47:39.152Z,4.20
2022-08-04T01:48:39.135Z,3.90
2022-08-04T01:49:40.451Z,3.80
2022-08-04T01:50:39.105Z,3.20
2022-08-04T01:51:39.108Z,3.60
2022-08-04T01:52:39.087Z,3.50
2022-08-04T01:53:39.086Z,3.70
2022-08-04T01:54:39.067Z,3.60
2022-08-04T01:55:52.059Z,3.50
2022-08-04T01:56:40.048Z,3.60
2022-08-04T01:57:39.537Z,3.90
2022-08-04T01:58:39.028Z,3.90
2022-08-04T01:59:39.019Z,3.70
2022-08-04T02:00:39.029Z,3.50
2022-08-04T02:01:39.073Z,3.70
2022-08-04T02:02:39.034Z,3.40
2022-08-04T02:04:19.524Z,3.90
2022-08-04T02:04:39.960Z,3.60
2022-08-04T02:06:03.971Z,4.00
2022-08-04T02:06:39.941Z,3.50
2022-08-04T02:07:38.952Z,3.80
2022-08-04T02:08:38.923Z,3.60
2022-08-04T02:09:54.561Z,4.10
2022-08-04T02:10:39.923Z,3.70
2022-08-04T02:11:38.891Z,3.60
2022-08-04T02:12:38.884Z,3.60
2022-08-04T02:13:38.874Z,4.10
2022-08-04T02:14:38.865Z,3.40
2022-08-04T02:15:38.874Z,3.70
2022-08-04T02:16:38.837Z,4.00
2022-08-04T02:17:38.826Z,3.50
2022-08-04T02:18:38.819Z,4.10
2022-08-04T02:19:38.809Z,4.20
2022-08-04T02:20:38.817Z,4.40
2022-08-04T02:21:42.576Z,4.30
2022-08-04T02:22:38.769Z,4.00
2022-08-04T02:23:38.759Z,3.80
2022-08-04T02:24:38.749Z,3.80
2022-08-04T02:25:38.769Z,4.10
2022-08-04T02:26:38.731Z,3.70
2022-08-04T02:27:59.916Z,4.10
2022-08-04T02:28:39.709Z,4.30
2022-08-04T02:29:38.711Z,3.90
2022-08-04T02:30:38.712Z,3.90
2022-08-04T02:31:38.683Z,3.90
2022-08-04T02:32:38.662Z,4.20
2022-08-04T02:33:38.654Z,4.00
2022-08-04T02:34:38.643Z,3.80
2022-08-04T02:35:38.663Z,3.50
2022-08-04T02:36:38.623Z,3.70
2022-08-04T02:37:38.627Z,3.20
2022-08-04T02:38:38.603Z,4.00
2022-08-04T02:39:48.278Z,4.00
2022-08-04T02:40:39.601Z,3.40
2022-08-04T02:41:38.574Z,3.60
2022-08-04T02:42:38.557Z,3.40
2022-08-04T02:43:51.386Z,3.90
2022-08-04T02:44:39.538Z,3.60
2022-08-04T02:45:38.548Z,3.30
2022-08-04T02:46:38.520Z,3.60
2022-08-04T02:48:19.401Z,4.10
2022-08-04T02:48:39.489Z,3.50
2022-08-04T02:49:38.543Z,3.60
2022-08-04T02:50:38.499Z,3.80
2022-08-04T02:51:38.463Z,3.50
2022-08-04T02:52:38.450Z,3.80
2022-08-04T02:53:38.462Z,3.70
2022-08-04T02:54:38.431Z,3.30
2022-08-04T02:55:38.447Z,4.40
2022-08-04T02:56:38.929Z,3.70
2022-08-04T02:57:38.403Z,3.60
2022-08-04T02:58:38.393Z,3.70
2022-08-04T02:59:38.384Z,3.50
2022-08-04T03:00:38.385Z,3.40
2022-08-04T03:01:57.347Z,3.50
2022-08-04T03:02:39.345Z,3.70
2022-08-04T03:03:38.342Z,3.40
2022-08-04T03:04:38.325Z,3.40
2022-08-04T03:05:54.159Z,3.30
2022-08-04T03:06:39.297Z,3.50
2022-08-04T03:07:38.298Z,3.30
2022-08-04T03:08:38.284Z,3.30
2022-08-04T03:09:38.269Z,4.00
2022-08-04T03:10:38.280Z,3.40
2022-08-04T03:11:38.260Z,3.60
2022-08-04T03:12:38.241Z,3.60
2022-08-04T03:13:38.238Z,3.70
2022-08-04T03:14:38.210Z,3.30
2022-08-04T03:15:38.230Z,3.10
2022-08-04T03:16:38.921Z,3.20
2022-08-04T03:17:38.191Z,3.00
2022-08-04T03:18:39.173Z,3.90
2022-08-04T03:19:38.171Z,3.50
2022-08-04T03:20:38.193Z,3.60
2022-08-04T03:21:38.143Z,3.90
2022-08-04T03:22:53.791Z,4.10
2022-08-04T03:23:39.123Z,3.60
2022-08-04T03:24:38.121Z,4.10
2022-08-04T03:25:56.638Z,3.50
2022-08-04T03:26:39.084Z,3.80
2022-08-04T03:27:38.076Z,3.40
2022-08-04T03:28:38.065Z,3.70
2022-08-04T03:29:38.066Z,3.60
2022-08-04T03:30:38.066Z,3.70
2022-08-04T03:31:38.036Z,3.70
2022-08-04T03:32:38.027Z,3.50
2022-08-04T03:33:38.022Z,4.20
2022-08-04T03:34:38.022Z,4.30
2022-08-04T03:35:38.018Z,5.10
2022-08-04T03:36:37.941Z,5.00
2022-08-04T03:37:37.978Z,4.20
2022-08-04T03:38:37.959Z,4.30
2022-08-04T03:39:37.985Z,4.40
2022-08-04T03:40:37.964Z,4.60
2022-08-04T03:41:59.820Z,4.20
2022-08-04T03:42:38.920Z,4.00
2022-08-04T03:43:57.287Z,4.20
2022-08-04T03:44:38.892Z,4.20
2022-08-04T03:45:37.915Z,4.00
2022-08-04T03:46:37.835Z,3.70
2022-08-04T03:47:42.380Z,4.10
2022-08-04T03:48:38.864Z,4.10
2022-08-04T03:49:37.853Z,3.70
2022-08-04T03:50:41.307Z,3.60
2022-08-04T03:51:37.827Z,4.20
2022-08-04T03:52:37.814Z,3.90
2022-08-04T03:53:37.820Z,3.90
2022-08-04T03:54:37.797Z,3.70
2022-08-04T03:55:37.816Z,3.80
2022-08-04T03:56:37.776Z,4.10
2022-08-04T03:57:37.787Z,4.00
2022-08-04T03:58:37.708Z,4.20
2022-08-04T03:59:37.709Z,4.70
2022-08-04T04:00:37.698Z,4.40
2022-08-04T04:02:01.242Z,4.10
2022-08-04T04:02:38.692Z,4.30
2022-08-04T04:03:37.661Z,4.60
2022-08-04T04:04:37.638Z,4.20
2022-08-04T04:05:41.023Z,4.20
2022-08-04T04:06:38.621Z,4.30
2022-08-04T04:07:37.613Z,4.00
2022-08-04T04:08:37.592Z,4.40
2022-08-04T04:09:58.134Z,4.30
2022-08-04T04:10:38.643Z,4.50
2022-08-04T04:11:55.400Z,3.90
2022-08-04T04:12:38.553Z,4.40
2022-08-04T04:13:37.545Z,4.20
2022-08-04T04:14:37.534Z,4.00
2022-08-04T04:15:37.554Z,4.50
2022-08-04T04:16:37.515Z,4.40
2022-08-04T04:17:37.526Z,3.90
2022-08-04T04:18:37.531Z,3.80
2022-08-04T04:19:37.494Z,4.60
2022-08-04T04:20:37.497Z,4.20
2022-08-04T04:21:37.466Z,4.30
2022-08-04T04:22:38.544Z,3.80
2022-08-04T04:23:37.438Z,3.70
2022-08-04T04:24:37.438Z,4.00
2022-08-04T04:25:37.448Z,3.80
2022-08-04T04:26:37.409Z,4.00
2022-08-04T04:27:37.402Z,4.20
2022-08-04T04:28:44.832Z,4.20
2022-08-04T04:29:38.388Z,3.90
2022-08-04T04:30:37.390Z,4.10
2022-08-04T04:31:37.360Z,3.70
2022-08-04T04:32:37.341Z,3.90
2022-08-04T04:33:37.332Z,4.20
2022-08-04T04:34:37.321Z,4.10
2022-08-04T04:35:37.345Z,4.40
2022-08-04T04:36:37.305Z,4.10
2022-08-04T04:37:37.296Z,5.40
2022-08-04T04:38:38.284Z,5.30
2022-08-04T04:39:37.318Z,5.60
2022-08-04T04:40:37.285Z,5.00
2022-08-04T04:41:37.258Z,5.10
2022-08-04T04:42:37.246Z,4.30
2022-08-04T04:43:50.498Z,4.10
2022-08-04T04:44:38.217Z,4.00
2022-08-04T04:45:37.240Z,4.40
2022-08-04T04:46:37.208Z,4.80
2022-08-04T04:48:07.669Z,4.50
2022-08-04T04:48:38.180Z,4.40
2022-08-04T04:49:37.215Z,4.40
2022-08-04T04:50:37.178Z,4.10
2022-08-04T04:51:37.151Z,4.40
2022-08-04T04:52:37.139Z,4.00
2022-08-04T04:53:37.130Z,4.10
2022-08-04T04:54:37.109Z,4.50
2022-08-04T04:55:37.131Z,4.70
2022-08-04T04:56:37.100Z,4.50
2022-08-04T04:57:53.296Z,4.30
2022-08-04T04:58:38.077Z,4.60
2022-08-04T04:59:37.063Z,4.30
2022-08-04T05:00:37.082Z,4.60
2022-08-04T05:01:37.053Z,4.50
2022-08-04T05:02:37.033Z,4.30
2022-08-04T05:03:37.026Z,4.20
2022-08-04T05:04:37.013Z,4.40
2022-08-04T05:05:37.025Z,4.20
2022-08-04T05:06:36.985Z,4.70
2022-08-04T05:07:36.984Z,4.50
2022-08-04T05:08:45.266Z,4.00
2022-08-04T05:09:37.964Z,4.30
2022-08-04T05:10:36.977Z,4.10
2022-08-04T05:11:36.938Z,4.30
2022-08-04T05:14:31.742Z,4.40
2022-08-04T05:14:38.594Z,4.60
2022-08-04T05:14:41.506Z,4.30
2022-08-04T05:15:36.935Z,4.10
2022-08-04T05:16:36.886Z,4.70
2022-08-04T05:17:36.881Z,4.60
2022-08-04T05:18:36.867Z,4.90
2022-08-04T05:19:36.860Z,4.90
2022-08-04T05:20:36.868Z,4.50
2022-08-04T05:21:36.840Z,4.90
2022-08-04T05:22:36.821Z,4.70
2022-08-04T05:23:36.812Z,4.70
2022-08-04T05:24:36.801Z,4.60
2022-08-04T05:25:36.814Z,4.70
2022-08-04T05:26:36.783Z,4.10
2022-08-04T05:27:39.799Z,3.90
2022-08-04T05:28:36.763Z,4.30
2022-08-04T05:29:36.755Z,4.50
2022-08-04T05:30:36.755Z,4.30
2022-08-04T05:31:36.731Z,4.50
2022-08-04T05:32:36.715Z,4.50
2022-08-04T05:33:36.714Z,4.60
2022-08-04T05:34:36.711Z,5.20
2022-08-04T05:35:47.905Z,4.80
2022-08-04T05:36:41.397Z,5.50
2022-08-04T05:37:36.671Z,5.30
2022-08-04T05:38:36.657Z,5.00
2022-08-04T05:39:36.683Z,4.80
2022-08-04T05:40:36.659Z,4.80
2022-08-04T05:41:45.355Z,5.40
2022-08-04T05:42:37.610Z,4.80
2022-08-04T05:43:36.601Z,4.70
2022-08-04T05:44:36.591Z,5.50
2022-08-04T05:45:39.112Z,5.40
2022-08-04T05:46:36.580Z,4.70
2022-08-04T05:47:36.561Z,4.70
2022-08-04T05:48:36.561Z,4.80
2022-08-04T05:49:36.541Z,4.90
2022-08-04T05:50:36.574Z,5.20
2022-08-04T05:51:36.513Z,5.20
2022-08-04T05:52:36.515Z,5.00
2022-08-04T05:53:36.493Z,5.10
2022-08-04T05:54:36.492Z,5.10
2022-08-04T05:55:48.701Z,4.30
2022-08-04T05:56:37.503Z,5.00
2022-08-04T05:57:36.455Z,4.70
2022-08-04T05:58:36.447Z,4.60
2022-08-04T05:59:36.437Z,4.60
2022-08-04T06:00:41.108Z,4.70
2022-08-04T06:01:56.054Z,4.90
2022-08-04T06:02:37.405Z,4.10
2022-08-04T06:03:36.388Z,5.00
2022-08-04T06:04:36.380Z,4.80
2022-08-04T06:05:36.389Z,4.80
2022-08-04T06:06:36.380Z,4.80
2022-08-04T06:07:36.348Z,4.80
2022-08-04T06:08:37.339Z,4.50
2022-08-04T06:09:36.324Z,4.60
2022-08-04T06:10:36.321Z,5.30
2022-08-04T06:12:00.471Z,4.90
2022-08-04T06:12:37.302Z,5.10
2022-08-04T06:13:47.714Z,5.10
2022-08-04T06:14:37.272Z,4.50
2022-08-04T06:15:36.262Z,4.60
2022-08-04T06:16:37.273Z,4.90
2022-08-04T06:19:58.439Z,4.90
2022-08-04T06:20:01.889Z,4.40
2022-08-04T06:20:02.901Z,4.70
2022-08-04T06:20:37.368Z,4.70
2022-08-04T06:21:36.216Z,4.70
2022-08-04T06:22:36.186Z,5.10
2022-08-04T06:23:36.176Z,4.90
2022-08-04T06:24:37.167Z,5.10
2022-08-04T06:25:36.157Z,5.10
2022-08-04T06:26:36.178Z,5.00
2022-08-04T06:27:36.146Z,4.60
2022-08-04T06:28:36.133Z,5.00
2022-08-04T06:29:36.121Z,4.20
2022-08-04T06:30:36.111Z,5.60
2022-08-04T06:32:27.590Z,5.50
2022-08-04T06:32:41.622Z,5.70
2022-08-04T06:33:54.521Z,4.70
2022-08-04T06:34:37.063Z,4.80
2022-08-04T06:35:36.051Z,4.70
2022-08-04T06:36:36.062Z,4.60
2022-08-04T06:37:42.032Z,4.70
2022-08-04T06:38:37.023Z,4.80
2022-08-04T06:39:36.055Z,4.60
2022-08-04T06:40:36.061Z,4.80
2022-08-04T06:41:36.015Z,4.50
2022-08-04T06:42:36.993Z,5.40
2022-08-04T06:43:43.040Z,5.20
2022-08-04T06:44:36.965Z,5.00
2022-08-04T06:45:35.959Z,4.70
2022-08-04T06:46:35.966Z,4.20
2022-08-04T06:47:35.926Z,4.60
2022-08-04T06:48:35.916Z,4.60
2022-08-04T06:49:55.005Z,4.10
2022-08-04T06:51:27.333Z,4.60
2022-08-04T06:51:42.433Z,4.70
2022-08-04T06:52:36.899Z,4.80
2022-08-04T06:53:35.909Z,5.00
2022-08-04T06:54:35.880Z,5.90
2022-08-04T06:55:35.871Z,5.30
2022-08-04T06:56:35.881Z,5.20
2022-08-04T06:57:35.851Z,5.30
2022-08-04T06:58:35.841Z,5.10
2022-08-04T06:59:35.813Z,4.90
2022-08-04T07:00:35.814Z,4.70
2022-08-04T07:01:35.884Z,4.60
2022-08-04T07:02:35.781Z,4.50
2022-08-04T07:03:35.773Z,4.40
2022-08-04T07:04:35.753Z,4.70
2022-08-04T07:05:35.744Z,4.60
2022-08-04T07:06:35.765Z,4.20
2022-08-04T07:07:37.238Z,4.50
2022-08-04T07:08:36.722Z,4.80
2022-08-04T07:09:35.706Z,4.50
2022-08-04T07:10:35.698Z,4.40
2022-08-04T07:11:39.150Z,4.50
2022-08-04T07:12:36.668Z,4.00
2022-08-04T07:13:35.660Z,3.90
2022-08-04T07:14:35.662Z,4.30
2022-08-04T07:15:35.630Z,4.40
2022-08-04T07:16:35.648Z,4.60
2022-08-04T07:17:35.610Z,4.00
2022-08-04T07:18:35.600Z,3.90
2022-08-04T07:19:35.590Z,3.90
2022-08-04T07:20:36.900Z,4.40
2022-08-04T07:21:35.595Z,4.20
2022-08-04T07:22:35.562Z,4.00
2022-08-04T07:23:35.545Z,4.00
2022-08-04T07:24:35.542Z,3.90
2022-08-04T07:25:59.452Z,4.20
2022-08-04T07:26:36.545Z,4.10
2022-08-04T07:27:47.470Z,4.00
2022-08-04T07:28:36.504Z,4.30
2022-08-04T07:29:35.483Z,3.80
2022-08-04T07:30:35.476Z,4.10
2022-08-04T07:31:36.350Z,3.30
2022-08-04T07:32:35.465Z,4.00
2022-08-04T07:33:35.437Z,4.30
2022-08-04T07:34:35.455Z,4.20
2022-08-04T07:36:04.952Z,4.10
2022-08-04T07:36:50.064Z,4.40
2022-08-04T07:37:39.076Z,3.80
2022-08-04T07:38:37.443Z,3.80
2022-08-04T07:39:47.615Z,3.90
2022-08-04T07:40:36.380Z,3.90
2022-08-04T07:41:36.110Z,3.80
2022-08-04T07:42:35.350Z,3.90
2022-08-04T07:43:35.340Z,4.10
2022-08-04T07:44:35.332Z,4.10
2022-08-04T07:45:35.323Z,3.90
2022-08-04T07:46:35.332Z,3.80
2022-08-04T07:47:35.292Z,3.70
2022-08-04T07:48:35.314Z,3.70
2022-08-04T07:49:54.811Z,3.70
2022-08-04T07:50:36.265Z,3.70
2022-08-04T07:51:35.384Z,3.90
2022-08-04T07:52:39.647Z,3.80
2022-08-04T07:53:54.421Z,3.50
2022-08-04T07:54:36.230Z,3.60
2022-08-04T07:55:35.226Z,3.30
2022-08-04T07:56:35.226Z,3.20
2022-08-04T07:57:41.543Z,3.10
2022-08-04T07:58:36.187Z,3.20
2022-08-04T07:59:35.169Z,3.20
2022-08-04T08:00:35.168Z,3.20
2022-08-04T08:01:35.169Z,3.10
2022-08-04T08:02:35.139Z,2.70
2022-08-04T08:03:35.159Z,2.50
2022-08-04T08:04:35.132Z,2.70
2022-08-04T08:05:35.101Z,2.40
2022-08-04T08:06:41.148Z,2.60
2022-08-04T08:07:36.083Z,2.60
2022-08-04T08:08:35.081Z,2.40
2022-08-04T08:09:35.063Z,2.60
2022-08-04T08:10:35.055Z,2.60
2022-08-04T08:12:37.862Z,2.50
2022-08-04T08:12:51.147Z,2.50
2022-08-04T08:13:36.024Z,2.30
2022-08-04T08:14:35.062Z,2.40
2022-08-04T08:15:35.006Z,2.40
2022-08-04T08:16:35.016Z,2.30
2022-08-04T08:17:58.902Z,2.40
2022-08-04T08:18:35.976Z,2.50
2022-08-04T08:19:35.042Z,2.50
2022-08-04T08:20:34.949Z,2.70
2022-08-04T08:21:34.965Z,2.40
2022-08-04T08:22:35.940Z,2.40
2022-08-04T08:23:34.922Z,2.40
2022-08-04T08:24:34.924Z,2.80
2022-08-04T08:25:34.897Z,2.50
2022-08-04T08:26:34.965Z,2.70
2022-08-04T08:27:34.871Z,2.60
2022-08-04T08:28:34.871Z,2.50
2022-08-04T08:29:34.872Z,2.40
2022-08-04T08:30:34.853Z,2.40
2022-08-04T08:31:56.163Z,2.60
2022-08-04T08:32:35.833Z,2.60
2022-08-04T08:33:34.814Z,2.50
2022-08-04T08:34:34.807Z,2.70
2022-08-04T08:35:34.793Z,2.50
2022-08-04T08:36:35.815Z,2.40
2022-08-04T08:37:34.774Z,2.20
2022-08-04T08:38:35.774Z,2.40
2022-08-04T08:39:34.840Z,2.20
2022-08-04T08:40:40.930Z,2.60
2022-08-04T08:41:35.767Z,2.40
2022-08-04T08:42:34.729Z,2.30
2022-08-04T08:44:06.033Z,2.50
2022-08-04T08:44:37.647Z,2.30
2022-08-04T08:45:34.689Z,2.50
2022-08-04T08:46:48.915Z,2.30
2022-08-04T08:48:06.321Z,2.30
2022-08-04T08:48:35.661Z,2.70
2022-08-04T08:50:02.630Z,2.70
2022-08-04T08:50:35.651Z,2.70
2022-08-04T08:51:34.654Z,2.00
2022-08-04T08:53:02.123Z,2.20
2022-08-04T08:53:35.616Z,2.30
2022-08-04T08:54:34.604Z,2.20
2022-08-04T08:55:34.612Z,2.10
2022-08-04T08:56:34.604Z,2.00
2022-08-04T08:57:34.567Z,2.40
2022-08-04T08:58:34.582Z,3.20
2022-08-04T08:59:34.545Z,2.60
2022-08-04T09:00:34.564Z,2.70
2022-08-04T09:01:34.639Z,2.40
2022-08-04T09:02:34.540Z,2.50
2022-08-04T09:03:34.516Z,1.90
2022-08-04T09:04:34.497Z,2.90
2022-08-04T09:05:34.494Z,2.50
2022-08-04T09:06:34.499Z,2.30
2022-08-04T09:07:34.479Z,2.50
2022-08-04T09:08:34.469Z,2.20
2022-08-04T09:09:34.442Z,2.00
2022-08-04T09:10:34.445Z,2.20
2022-08-04T09:11:34.441Z,2.10
2022-08-04T09:12:34.412Z,2.20
2022-08-04T09:13:34.403Z,2.20
2022-08-04T09:14:34.400Z,2.50
2022-08-04T09:15:35.206Z,2.20
2022-08-04T09:16:34.418Z,2.90
2022-08-04T09:17:34.408Z,2.30
2022-08-04T09:18:34.354Z,2.30
2022-08-04T09:19:38.080Z,2.40
2022-08-04T09:20:35.335Z,1.90
2022-08-04T09:21:34.345Z,2.10
2022-08-04T09:22:34.317Z,2.30
2022-08-04T09:23:34.297Z,2.20
2022-08-04T09:24:35.594Z,2.20
2022-08-04T09:25:34.277Z,2.10
2022-08-04T09:26:34.303Z,2.00
2022-08-04T09:27:34.263Z,2.20
2022-08-04T09:28:52.962Z,2.60
2022-08-04T09:29:35.239Z,2.20
2022-08-04T09:30:34.230Z,2.50
2022-08-04T09:31:51.720Z,2.10
2022-08-04T09:32:35.212Z,2.40
2022-08-04T09:33:44.656Z,2.30
2022-08-04T09:34:35.193Z,2.50
2022-08-04T09:35:34.195Z,2.30
2022-08-04T09:36:34.194Z,2.20
2022-08-04T09:37:34.154Z,2.00
2022-08-04T09:38:35.154Z,2.20
2022-08-04T09:39:34.237Z,2.00
2022-08-04T09:40:53.053Z,2.10
2022-08-04T09:41:49.598Z,2.30
2022-08-04T09:42:35.107Z,2.50
2022-08-04T09:44:42.717Z,2.20
2022-08-04T09:44:51.017Z,2.30
2022-08-04T09:45:42.580Z,1.90
2022-08-04T09:46:35.088Z,2.00
2022-08-04T09:47:39.947Z,2.10
2022-08-04T09:48:35.050Z,2.30
2022-08-04T09:49:34.039Z,2.20
2022-08-04T09:50:34.069Z,2.10
2022-08-04T09:51:57.802Z,2.00
2022-08-04T09:52:35.032Z,2.10
2022-08-04T09:53:34.003Z,1.80
2022-08-04T09:54:34.000Z,2.00
2022-08-04T09:55:33.982Z,2.00
2022-08-04T09:56:33.974Z,2.30
2022-08-04T09:57:34.007Z,1.60
2022-08-04T09:58:33.956Z,2.00
2022-08-04T09:59:33.951Z,1.70
2022-08-04T10:00:36.363Z,1.70
2022-08-04T10:01:34.926Z,2.10
2022-08-04T10:02:33.948Z,2.00
2022-08-04T10:03:33.949Z,2.10
2022-08-04T10:04:33.898Z,2.00
2022-08-04T10:05:33.888Z,2.20
2022-08-04T10:06:33.869Z,2.10
2022-08-04T10:07:33.896Z,2.00
2022-08-04T10:08:33.849Z,2.00
2022-08-04T10:09:33.866Z,2.00
2022-08-04T10:10:33.829Z,1.70
2022-08-04T10:11:33.827Z,1.60
2022-08-04T10:12:34.838Z,1.80
2022-08-04T10:13:33.814Z,1.70
2022-08-04T10:14:33.793Z,1.90
2022-08-04T10:15:33.822Z,1.80
2022-08-04T10:16:33.772Z,2.00
2022-08-04T10:17:33.791Z,1.70
2022-08-04T10:18:33.754Z,1.80
2022-08-04T10:19:33.745Z,1.70
2022-08-04T10:20:45.619Z,1.90
2022-08-04T10:21:34.725Z,1.30
2022-08-04T10:22:45.055Z,1.90
2022-08-04T10:23:55.669Z,2.20
2022-08-04T10:24:34.695Z,1.60
2022-08-04T10:26:03.068Z,1.70
2022-08-04T10:26:34.678Z,2.00
2022-08-04T10:27:33.696Z,1.50
2022-08-04T10:28:33.933Z,2.00
2022-08-04T10:29:33.649Z,2.00
2022-08-04T10:30:33.638Z,2.10
2022-08-04T10:31:33.630Z,1.80
2022-08-04T10:32:33.640Z,1.80
2022-08-04T10:33:33.611Z,2.00
2022-08-04T10:34:33.633Z,1.80
2022-08-04T10:35:33.591Z,2.00
2022-08-04T10:36:33.591Z,1.80
2022-08-04T10:38:00.006Z,1.60
2022-08-04T10:38:34.554Z,1.80
2022-08-04T10:39:42.950Z,1.50
2022-08-04T10:40:34.544Z,1.60
2022-08-04T10:41:33.535Z,1.70
2022-08-04T10:42:33.546Z,1.50
2022-08-04T10:43:33.517Z,2.00
2022-08-04T10:44:33.507Z,1.50
2022-08-04T10:45:34.504Z,1.40
2022-08-04T10:46:33.489Z,1.40
2022-08-04T10:47:33.498Z,1.60
2022-08-04T10:48:34.923Z,1.60
2022-08-04T10:49:33.476Z,1.30
2022-08-04T10:50:33.449Z,1.70
2022-08-04T10:51:57.343Z,1.20
2022-08-04T10:52:34.451Z,1.40
2022-08-04T10:53:33.421Z,1.20
2022-08-04T10:54:33.402Z,1.60
2022-08-04T10:56:07.443Z,1.20
2022-08-04T10:56:34.383Z,1.40
2022-08-04T10:57:33.952Z,1.50
2022-08-04T10:58:47.931Z,1.30
2022-08-04T10:59:34.362Z,1.20
2022-08-04T11:00:33.352Z,1.10
2022-08-04T11:02:00.862Z,1.00
2022-08-04T11:02:34.375Z,1.20
2022-08-04T11:03:33.334Z,1.30
2022-08-04T11:04:33.316Z,1.50
2022-08-04T11:05:33.306Z,1.20
2022-08-04T11:06:34.293Z,1.30
2022-08-04T11:07:33.309Z,1.30
2022-08-04T11:08:33.286Z,1.20
2022-08-04T11:09:33.269Z,1.10
2022-08-04T11:10:33.261Z,1.40
2022-08-04T11:11:57.148Z,1.20
2022-08-04T11:12:34.262Z,1.30
2022-08-04T11:13:33.234Z,1.30
2022-08-04T11:14:33.221Z,1.50
2022-08-04T11:15:33.212Z,1.60
2022-08-04T11:16:33.201Z,1.50
2022-08-04T11:17:33.223Z,1.50
2022-08-04T11:18:33.183Z,1.00
2022-08-04T11:19:45.054Z,1.10
2022-08-04T11:20:35.851Z,1.20
2022-08-04T11:21:33.158Z,1.50
2022-08-04T11:22:33.165Z,1.40
2022-08-04T11:23:33.137Z,1.20
2022-08-04T11:24:33.127Z,1.40
2022-08-04T11:25:33.117Z,1.50
2022-08-04T11:26:33.108Z,1.20
2022-08-04T11:27:33.117Z,1.40
2022-08-04T11:28:33.093Z,1.40
2022-08-04T11:29:33.086Z,1.50
2022-08-04T11:30:33.073Z,1.40
2022-08-04T11:31:33.060Z,1.50
2022-08-04T11:32:33.071Z,1.50
2022-08-04T11:33:33.553Z,1.30
2022-08-04T11:34:33.034Z,1.20
2022-08-04T11:35:33.044Z,1.20
2022-08-04T11:36:33.014Z,1.00
2022-08-04T11:37:33.039Z,1.50
2022-08-04T11:38:32.994Z,1.30
2022-08-04T11:39:33.144Z,1.70
2022-08-04T11:40:32.993Z,1.20
2022-08-04T11:41:32.973Z,1.50
2022-08-04T11:42:32.976Z,1.20
2022-08-04T11:44:01.444Z,1.30
2022-08-04T11:44:33.946Z,1.00
2022-08-04T11:45:32.933Z,1.20
2022-08-04T11:46:32.919Z,1.20
2022-08-04T11:47:32.941Z,1.20
2022-08-04T11:48:32.897Z,1.20
2022-08-04T11:49:56.545Z,1.00
2022-08-04T11:50:33.892Z,1.00
2022-08-04T11:51:32.879Z,1.10
2022-08-04T11:52:32.889Z,0.80
2022-08-04T11:53:36.783Z,0.90
2022-08-04T11:54:32.843Z,0.90
2022-08-04T11:55:32.842Z,0.90
2022-08-04T11:56:36.668Z,0.90
2022-08-04T11:57:36.264Z,0.90
2022-08-04T11:58:32.811Z,1.10
2022-08-04T11:59:32.804Z,1.10
2022-08-04T12:00:32.803Z,1.00
2022-08-04T12:01:32.784Z,0.90
2022-08-04T12:02:32.869Z,1.10
2022-08-04T12:03:32.765Z,1.00
2022-08-04T12:04:33.746Z,1.00
2022-08-04T12:05:36.608Z,1.10
2022-08-04T12:06:32.746Z,1.10
2022-08-04T12:07:34.586Z,0.90
2022-08-04T12:08:32.710Z,1.00
2022-08-04T12:09:32.708Z,1.00
2022-08-04T12:10:41.359Z,1.20
2022-08-04T12:11:33.689Z,1.00
2022-08-04T12:12:32.700Z,1.20
2022-08-04T12:13:32.744Z,1.10
2022-08-04T12:14:32.660Z,0.90
2022-08-04T12:15:32.651Z,1.00
2022-08-04T12:16:32.632Z,1.10
2022-08-04T12:17:52.126Z,0.90
2022-08-04T12:18:33.622Z,1.00
2022-08-04T12:19:51.304Z,1.10
2022-08-04T12:20:38.138Z,1.30
2022-08-04T12:21:33.595Z,1.00
2022-08-04T12:22:32.594Z,1.00
2022-08-04T12:23:32.578Z,1.20
2022-08-04T12:24:32.571Z,1.30
2022-08-04T12:25:32.546Z,1.30
2022-08-04T12:26:32.538Z,1.30
2022-08-04T12:27:32.558Z,1.10
2022-08-04T12:28:52.525Z,1.20
2022-08-04T12:29:33.508Z,1.20
2022-08-04T12:31:02.099Z,1.40
2022-08-04T12:31:33.487Z,1.00
2022-08-04T12:32:32.508Z,1.00
2022-08-04T12:34:02.795Z,1.00
2022-08-04T12:34:33.463Z,1.10
2022-08-04T12:35:32.452Z,0.90
2022-08-04T12:36:32.445Z,1.20
2022-08-04T12:37:32.451Z,1.10
2022-08-04T12:38:32.421Z,1.10
2022-08-04T12:39:32.443Z,0.90
2022-08-04T12:40:32.607Z,1.20
2022-08-04T12:41:32.403Z,1.20
2022-08-04T12:42:32.405Z,1.10
2022-08-04T12:43:32.382Z,1.00
2022-08-04T12:44:36.193Z,1.40
2022-08-04T12:45:32.356Z,1.20
2022-08-04T12:46:32.346Z,1.10
2022-08-04T12:47:32.364Z,1.40
2022-08-04T12:48:32.338Z,1.10
2022-08-04T12:49:32.326Z,1.20
2022-08-04T12:50:32.315Z,1.30
2022-08-04T12:52:07.460Z,1.20
2022-08-04T12:53:33.292Z,1.20
2022-08-04T12:54:32.270Z,1.20
2022-08-04T12:55:32.270Z,1.50
2022-08-04T12:56:32.262Z,1.20
2022-08-04T12:57:32.277Z,1.10
2022-08-04T12:58:42.931Z,1.20
2022-08-04T12:59:33.241Z,1.10
2022-08-04T13:00:36.649Z,1.50
2022-08-04T13:02:10.785Z,1.10
2022-08-04T13:02:33.312Z,1.10
2022-08-04T13:03:32.195Z,1.30
2022-08-04T13:04:32.175Z,1.10
2022-08-04T13:05:32.174Z,1.10
2022-08-04T13:06:32.157Z,1.30
2022-08-04T13:07:32.176Z,1.20
2022-08-04T13:08:32.478Z,1.50
2022-08-04T13:09:32.138Z,1.20
2022-08-04T13:10:32.121Z,1.30
2022-08-04T13:11:32.118Z,1.10
2022-08-04T13:12:33.191Z,1.40
2022-08-04T13:13:32.090Z,1.10
2022-08-04T13:14:32.079Z,2.20
2022-08-04T13:15:32.071Z,1.70
2022-08-04T13:16:32.060Z,1.90
2022-08-04T13:17:32.080Z,1.20
2022-08-04T13:18:33.057Z,1.30
2022-08-04T13:19:33.893Z,1.30